Meteo Giornale » Osservazioni meteo Stati Uniti (USA) » McCall
ore: 11:51 - Osservazioni Meteo McCall
Lat. 44° 53' N Lon. 116° 5' W Alt. 1530 metri s.l.m.
19 °C
Nuvoloso
Temp. 24 Ore
6 °C
25 °C
Nord
0 Km/h
Dew point 2 °C
Umidità 32 %
Visibilità 10 Km
Il sole sorge alle ore 07:06
Il sole tramonta alle ore 20:21
| Data e Ora | Cielo e Fenomeni | T °C | DP °C | Um. % | Pres. hPa | Vis. km | Vento km/h | |
|---|---|---|---|---|---|---|---|---|
| Oggi h: 11:51 | Nuvoloso | 19 | 2 | 32 | 1015 | 10 | N 0 | |
| Oggi h: 10:51 | Sereno | 16 | 2 | 38 | 1015 | 10 | N 0 | |
| Oggi h: 09:51 | Sereno | 13 | 3 | 50 | 1015 | 10 | O 7.4 | |
| Oggi h: 08:51 | Sereno | 11 | 1 | 50 | 1014 | 10 | N 0 | |
| Oggi h: 07:51 | Sereno | 8 | 0 | 56 | 1014 | 10 | N 0 | |
| Oggi h: 06:51 | Sereno | 7 | -1 | 56 | 1014 | 10 | N 0 | |
| Oggi h: 05:51 | Sereno | 7 | 0 | 60 | 1014 | 10 | N 5.5 | |
| Oggi h: 04:51 | Sereno | 6 | 0 | 65 | 1014 | 10 | N 0 | |
| Oggi h: 03:51 | Sereno | 8 | -1 | 52 | 1015 | 10 | N 0 | |
| Oggi h: 02:51 | Sereno | 8 | -1 | 52 | 1015 | 10 | N 0 | |
| Oggi h: 01:51 | Sereno | 9 | -1 | 49 | 1015 | 10 | N 0 | |
| Oggi h: 00:51 | Sereno | 9 | -1 | 49 | 1015 | 10 | N 0 | |
| Ieri h: 23:51 | Sereno | 12 | 1 | 46 | 1015 | 10 | N 5.5 | |
| Ieri h: 22:51 | Sereno | 15 | 1 | 38 | 1015 | 10 | N 5.5 | |
| Ieri h: 21:51 | Sereno | 16 | -1 | 31 | 1015 | 10 | N 5.5 | |
| Ieri h: 20:51 | Sereno | 18 | -1 | 27 | 1015 | 10 | E/NE 7.4 | |
| Ieri h: 19:51 | Sereno | 23 | -3 | 17 | 1015 | 10 | S/SE 7.4 | |
| Ieri h: 18:51 | Sereno | 24 | -5 | 14 | 1015 | 10 | S/SO 13 | |
| Ieri h: 17:51 | Sereno | 25 | -4 | 14 | 1016 | 10 | S/SE 14.8 | |
| Ieri h: 16:51 | Sereno | 25 | -6 | 12 | 1016 | 10 | S/SE 16.7 | |
| Ieri h: 15:51 | Sereno | 24 | -5 | 14 | 1017 | 10 | SO 16.7 | |
| Ieri h: 14:51 | Sereno | 23 | -2 | 18 | 1018 | 10 | S/SO 13 | |
| Ieri h: 13:51 | Sereno | 22 | -3 | 18 | 1018 | 10 | N 5.5 | |
| Ieri h: 12:51 | Sereno | 20 | -2 | 22 | 1019 | 10 | N 0 | |



